createdAt,value
2023-04-27T00:00:40.263Z,55.50
2023-04-27T00:03:07.436Z,55.97
2023-04-27T00:05:39.379Z,56.72
2023-04-27T00:08:07.024Z,56.68
2023-04-27T00:10:33.730Z,56.77
2023-04-27T00:13:00.628Z,56.94
2023-04-27T00:15:27.751Z,56.89
2023-04-27T00:17:54.536Z,56.76
2023-04-27T00:20:21.209Z,57.71
2023-04-27T00:22:47.674Z,57.27
2023-04-27T00:25:14.213Z,57.76
2023-04-27T00:27:40.624Z,57.70
2023-04-27T00:30:08.114Z,57.78
2023-04-27T00:32:34.732Z,57.71
2023-04-27T00:35:01.194Z,57.64
2023-04-27T00:37:27.690Z,57.83
2023-04-27T00:39:54.143Z,57.69
2023-04-27T00:42:20.695Z,57.90
2023-04-27T00:44:47.261Z,58.31
2023-04-27T00:47:14.493Z,57.49
2023-04-27T00:49:41.060Z,57.58
2023-04-27T00:52:07.745Z,57.66
2023-04-27T00:54:34.307Z,57.76
2023-04-27T00:57:01.042Z,57.66
2023-04-27T00:59:27.667Z,57.78
2023-04-27T01:01:55.048Z,57.95
2023-04-27T01:04:21.978Z,57.98
2023-04-27T01:06:48.584Z,57.90
2023-04-27T01:09:16.454Z,58.11
2023-04-27T01:11:42.932Z,58.93
2023-04-27T01:14:09.715Z,58.58
2023-04-27T01:16:37.290Z,58.33
2023-04-27T01:19:04.481Z,57.90
2023-04-27T01:21:30.980Z,57.99
2023-04-27T01:23:57.450Z,58.08
2023-04-27T01:26:23.943Z,58.41
2023-04-27T01:28:50.286Z,58.67
2023-04-27T01:31:16.763Z,58.37
2023-04-27T01:33:43.425Z,58.40
2023-04-27T01:36:10.069Z,58.67
2023-04-27T01:38:37.154Z,58.83
2023-04-27T01:41:08.987Z,59.55
2023-04-27T01:43:39.298Z,59.36
2023-04-27T01:46:11.433Z,59.64
2023-04-27T01:48:39.085Z,60.44
2023-04-27T01:51:05.907Z,60.50
2023-04-27T01:53:32.317Z,60.39
2023-04-27T01:56:02.269Z,60.55
2023-04-27T01:58:28.964Z,60.89
2023-04-27T02:00:55.418Z,60.94
2023-04-27T02:03:22.144Z,60.70
2023-04-27T02:05:49.093Z,60.79
2023-04-27T02:08:15.611Z,60.79
2023-04-27T02:10:42.093Z,61.35
2023-04-27T02:13:09.869Z,60.86
2023-04-27T02:15:36.496Z,61.15
2023-04-27T02:18:03.861Z,61.15
2023-04-27T02:20:31.535Z,61.24
2023-04-27T02:22:58.203Z,60.60
2023-04-27T02:25:24.740Z,60.80
2023-04-27T02:27:51.255Z,61.07
2023-04-27T02:30:18.172Z,60.38
2023-04-27T02:32:46.398Z,60.68
2023-04-27T02:35:13.041Z,61.27
2023-04-27T02:37:39.938Z,61.25
2023-04-27T02:40:08.050Z,61.45
2023-04-27T02:42:34.543Z,61.76
2023-04-27T02:45:01.010Z,61.47
2023-04-27T02:47:27.606Z,61.62
2023-04-27T02:49:54.105Z,61.60
2023-04-27T02:52:20.767Z,61.75
2023-04-27T02:54:47.259Z,61.70
2023-04-27T02:57:13.852Z,61.71
2023-04-27T02:59:40.408Z,61.26
2023-04-27T03:02:07.162Z,61.49
2023-04-27T03:04:33.646Z,61.54
2023-04-27T03:07:00.124Z,61.73
2023-04-27T03:09:26.705Z,61.20
2023-04-27T03:11:53.132Z,61.76
2023-04-27T03:14:19.610Z,62.38
2023-04-27T03:16:46.235Z,62.34
2023-04-27T03:19:12.904Z,62.34
2023-04-27T03:21:39.467Z,62.29
2023-04-27T03:24:06.118Z,62.10
2023-04-27T03:26:32.494Z,62.85
2023-04-27T03:28:59.010Z,62.05
2023-04-27T03:31:25.488Z,62.41
2023-04-27T03:33:51.974Z,62.30
2023-04-27T03:36:18.529Z,62.16
2023-04-27T03:38:44.914Z,61.83
2023-04-27T03:41:11.739Z,62.45
2023-04-27T03:43:38.190Z,61.84
2023-04-27T03:46:04.753Z,61.81
2023-04-27T03:48:31.255Z,62.28
2023-04-27T03:50:57.713Z,62.57
2023-04-27T03:53:24.150Z,62.54
2023-04-27T03:55:50.654Z,62.87
2023-04-27T03:58:17.891Z,62.71
2023-04-27T04:00:44.385Z,62.82
2023-04-27T04:03:11.244Z,62.35
2023-04-27T04:05:37.752Z,62.33
2023-04-27T04:08:04.391Z,62.58
2023-04-27T04:10:30.864Z,62.54
2023-04-27T04:12:57.389Z,62.78
2023-04-27T04:15:23.854Z,62.34
2023-04-27T04:17:50.423Z,62.24
2023-04-27T04:20:17.417Z,62.59
2023-04-27T04:22:44.293Z,62.54
2023-04-27T04:25:10.735Z,62.70
2023-04-27T04:27:37.645Z,62.41
2023-04-27T04:30:06.119Z,62.64
2023-04-27T04:32:33.816Z,62.57
2023-04-27T04:35:01.504Z,61.78
2023-04-27T04:37:28.158Z,61.82
2023-04-27T04:39:54.601Z,61.17
2023-04-27T04:42:21.115Z,61.34
2023-04-27T04:44:47.560Z,61.68
2023-04-27T04:47:14.221Z,61.59
2023-04-27T04:49:40.687Z,61.92
2023-04-27T04:52:07.209Z,61.44
2023-04-27T04:54:33.681Z,61.52
2023-04-27T04:57:00.985Z,61.89
2023-04-27T04:59:27.356Z,61.45
2023-04-27T05:01:56.750Z,61.39
2023-04-27T05:04:23.440Z,61.10
2023-04-27T05:06:49.946Z,60.65
2023-04-27T05:09:16.565Z,60.52
2023-04-27T05:11:43.060Z,60.53
2023-04-27T05:14:09.569Z,60.46
2023-04-27T05:16:36.158Z,60.18
2023-04-27T05:19:02.677Z,59.86
2023-04-27T05:21:29.162Z,59.89
2023-04-27T05:23:55.613Z,59.89
2023-04-27T05:26:22.083Z,58.75
2023-04-27T05:28:49.339Z,58.48
2023-04-27T05:31:15.973Z,58.71
2023-04-27T05:33:42.780Z,58.50
2023-04-27T05:36:09.497Z,57.81
2023-04-27T05:38:40.035Z,57.92
2023-04-27T05:41:06.495Z,57.91
2023-04-27T05:43:34.948Z,57.24
2023-04-27T05:46:01.497Z,57.10
2023-04-27T05:48:27.995Z,56.64
2023-04-27T05:51:02.144Z,54.70
2023-04-27T05:53:32.830Z,54.98
2023-04-27T05:56:00.918Z,54.43
2023-04-27T05:58:28.300Z,54.12
2023-04-27T06:00:54.815Z,53.89
2023-04-27T06:03:21.722Z,53.02
2023-04-27T06:05:58.908Z,52.73
2023-04-27T06:08:25.926Z,52.36
2023-04-27T06:10:52.565Z,52.38
2023-04-27T06:13:19.020Z,51.79
2023-04-27T06:15:46.291Z,52.25
2023-04-27T06:18:13.169Z,51.33
2023-04-27T06:20:39.930Z,51.11
2023-04-27T06:23:06.405Z,50.66
2023-04-27T06:25:32.912Z,50.57
2023-04-27T06:27:59.430Z,49.97
2023-04-27T06:30:25.884Z,50.52
2023-04-27T06:32:52.542Z,49.98
2023-04-27T06:35:19.219Z,49.92
2023-04-27T06:37:45.820Z,50.37
2023-04-27T06:40:12.515Z,49.73
2023-04-27T06:42:38.913Z,49.09
2023-04-27T06:45:07.348Z,49.02
2023-04-27T06:47:33.835Z,48.03
2023-04-27T06:50:00.668Z,48.15
2023-04-27T06:52:27.386Z,47.50
2023-04-27T06:54:54.089Z,47.35
2023-04-27T06:57:20.531Z,46.93
2023-04-27T06:59:46.982Z,46.38
2023-04-27T07:02:13.512Z,47.06
2023-04-27T07:04:40.174Z,46.00
2023-04-27T07:07:06.658Z,45.79
2023-04-27T07:09:33.463Z,44.41
2023-04-27T07:12:01.238Z,44.00
2023-04-27T07:14:27.696Z,42.88
2023-04-27T07:16:54.114Z,42.16
2023-04-27T07:19:20.563Z,41.43
2023-04-27T07:21:46.982Z,41.44
2023-04-27T07:24:13.431Z,40.50
2023-04-27T07:26:39.884Z,39.50
2023-04-27T07:29:19.000Z,39.60
2023-04-27T07:31:52.021Z,38.48
2023-04-27T07:34:18.855Z,36.99
2023-04-27T07:36:45.697Z,35.56
2023-04-27T07:39:12.789Z,33.20
2023-04-27T07:41:39.401Z,33.74
2023-04-27T07:44:05.787Z,33.90
2023-04-27T07:46:32.789Z,34.39
2023-04-27T07:48:59.939Z,33.35
2023-04-27T07:51:28.703Z,32.82
2023-04-27T07:53:55.706Z,34.06
2023-04-27T07:56:22.228Z,33.46
2023-04-27T07:58:48.634Z,33.55
2023-04-27T08:01:15.083Z,32.20
2023-04-27T08:03:41.697Z,32.60
2023-04-27T08:06:08.954Z,31.45
2023-04-27T08:08:35.695Z,31.93
2023-04-27T08:11:02.149Z,31.26
2023-04-27T08:13:28.906Z,31.20
2023-04-27T08:15:58.411Z,31.64
2023-04-27T08:18:26.067Z,32.71
2023-04-27T08:20:52.674Z,31.91
2023-04-27T08:23:19.170Z,31.56
2023-04-27T08:25:45.737Z,31.52
2023-04-27T08:28:13.240Z,31.74
2023-04-27T08:30:39.698Z,30.70
2023-04-27T08:33:06.271Z,32.03
2023-04-27T08:35:32.810Z,29.33
2023-04-27T08:37:59.289Z,29.52
2023-04-27T08:40:25.825Z,29.24
2023-04-27T08:42:57.575Z,28.20
2023-04-27T08:45:25.191Z,28.45
2023-04-27T08:47:51.971Z,27.23
2023-04-27T08:50:19.294Z,26.66
2023-04-27T08:52:46.890Z,27.14
2023-04-27T08:55:16.531Z,26.15
2023-04-27T08:57:57.301Z,25.31
2023-04-27T09:00:25.705Z,26.29
2023-04-27T09:02:52.292Z,26.68
2023-04-27T09:05:19.644Z,26.47
2023-04-27T09:08:05.368Z,24.15
2023-04-27T09:10:44.309Z,24.20
2023-04-27T09:13:10.786Z,24.29
2023-04-27T09:15:48.819Z,26.23
2023-04-27T09:18:21.503Z,23.93
2023-04-27T09:20:52.740Z,24.56
2023-04-27T09:23:29.385Z,25.35
2023-04-27T09:25:57.251Z,24.68
2023-04-27T09:28:25.659Z,25.44
2023-04-27T09:30:54.557Z,24.76
2023-04-27T09:33:26.369Z,26.44
2023-04-27T09:35:53.697Z,27.98
2023-04-27T09:38:21.222Z,28.35
2023-04-27T09:40:49.120Z,26.88
2023-04-27T09:43:16.353Z,26.45
2023-04-27T09:45:43.488Z,28.59
2023-04-27T09:48:11.322Z,28.11
2023-04-27T09:50:39.466Z,27.15
2023-04-27T09:53:08.132Z,27.65
2023-04-27T09:55:40.881Z,29.14
2023-04-27T09:59:13.747Z,27.70
2023-04-27T10:01:50.670Z,28.12
2023-04-27T10:04:54.122Z,27.76
2023-04-27T10:07:21.342Z,29.05
2023-04-27T10:09:49.853Z,28.26
2023-04-27T10:12:26.684Z,28.48
2023-04-27T10:14:58.357Z,29.08
2023-04-27T10:17:32.995Z,27.91
2023-04-27T10:20:02.540Z,27.04
2023-04-27T10:22:50.130Z,26.02
2023-04-27T10:25:26.226Z,27.22
2023-04-27T10:28:02.591Z,26.44
2023-04-27T10:30:34.418Z,27.88
2023-04-27T10:33:09.404Z,28.09
2023-04-27T10:35:37.199Z,27.68
2023-04-27T10:38:08.387Z,28.47
2023-04-27T10:40:36.361Z,28.67
2023-04-27T10:43:11.336Z,30.76
2023-04-27T10:45:38.115Z,28.54
2023-04-27T10:48:05.319Z,28.53
2023-04-27T10:50:34.617Z,27.72
2023-04-27T10:53:03.792Z,28.78
2023-04-27T10:55:31.420Z,28.86
2023-04-27T10:57:58.170Z,29.89
2023-04-27T11:00:25.283Z,30.50
2023-04-27T11:02:55.906Z,29.41
2023-04-27T11:05:30.316Z,29.30
2023-04-27T11:08:14.368Z,27.46
2023-04-27T11:10:51.003Z,27.81
2023-04-27T11:13:23.354Z,29.26
2023-04-27T11:15:57.330Z,28.04
2023-04-27T11:18:27.684Z,28.34
2023-04-27T11:21:06.762Z,27.76
2023-04-27T11:23:39.692Z,28.03
2023-04-27T11:26:16.968Z,26.59
2023-04-27T11:28:44.920Z,27.35
2023-04-27T11:31:11.834Z,28.16
2023-04-27T11:33:40.173Z,28.53
2023-04-27T11:36:17.706Z,29.15
2023-04-27T11:38:44.214Z,27.42
2023-04-27T11:41:10.763Z,28.04
2023-04-27T11:43:42.407Z,28.60
2023-04-27T11:46:10.992Z,29.88
2023-04-27T11:48:38.426Z,29.63
2023-04-27T11:51:05.829Z,30.50
2023-04-27T11:53:38.403Z,31.06
2023-04-27T11:56:07.850Z,31.36
2023-04-27T11:58:36.024Z,30.96
2023-04-27T12:01:04.246Z,30.34
2023-04-27T12:03:31.748Z,30.48
2023-04-27T12:06:11.733Z,30.40
2023-04-27T12:08:42.971Z,28.88
2023-04-27T12:11:09.478Z,28.88
2023-04-27T12:13:36.026Z,29.34
2023-04-27T12:16:02.480Z,29.97
2023-04-27T12:18:28.880Z,29.58
2023-04-27T12:20:55.323Z,29.95
2023-04-27T12:23:21.778Z,28.74
2023-04-27T12:25:48.401Z,28.26
2023-04-27T12:28:19.047Z,28.28
2023-04-27T12:30:45.612Z,27.41
2023-04-27T12:33:12.442Z,27.38
2023-04-27T12:35:39.134Z,28.19
2023-04-27T12:38:05.890Z,27.94
2023-04-27T12:40:33.199Z,28.79
2023-04-27T12:43:01.169Z,28.53
2023-04-27T12:45:27.881Z,28.79
2023-04-27T12:48:03.150Z,29.03
2023-04-27T12:50:34.079Z,29.21
2023-04-27T12:53:00.752Z,28.22
2023-04-27T12:55:33.857Z,28.68
2023-04-27T12:58:01.363Z,28.65
2023-04-27T13:00:29.312Z,28.07
2023-04-27T13:02:56.728Z,28.19
2023-04-27T13:05:23.460Z,28.90
2023-04-27T13:07:49.965Z,28.89
2023-04-27T13:10:16.422Z,28.00
2023-04-27T13:12:43.008Z,27.94
2023-04-27T13:15:10.361Z,31.06
2023-04-27T13:17:37.114Z,28.64
2023-04-27T13:20:04.149Z,27.26
2023-04-27T13:22:30.562Z,27.96
2023-04-27T13:24:57.029Z,27.80
2023-04-27T13:27:25.221Z,26.93
2023-04-27T13:29:51.917Z,27.70
2023-04-27T13:32:18.689Z,28.36
2023-04-27T13:34:45.440Z,29.07
2023-04-27T13:37:12.008Z,29.07
2023-04-27T13:39:38.403Z,28.38
2023-04-27T13:42:04.906Z,28.36
2023-04-27T13:44:31.855Z,29.28
2023-04-27T13:46:58.413Z,30.07
2023-04-27T13:49:25.826Z,29.11
2023-04-27T13:51:52.605Z,29.28
2023-04-27T13:54:20.544Z,28.84
2023-04-27T13:56:47.020Z,28.74
2023-04-27T13:59:13.869Z,28.92
2023-04-27T14:01:40.578Z,29.50
2023-04-27T14:04:07.491Z,29.84
2023-04-27T14:06:34.228Z,30.20
2023-04-27T14:09:00.835Z,30.42
2023-04-27T14:11:27.480Z,29.05
2023-04-27T14:13:54.008Z,28.87
2023-04-27T14:16:21.047Z,28.63
2023-04-27T14:18:47.547Z,29.68
2023-04-27T14:21:14.059Z,31.34
2023-04-27T14:23:40.913Z,30.43
2023-04-27T14:26:07.276Z,30.21
2023-04-27T14:28:33.977Z,29.36
2023-04-27T14:31:00.695Z,29.45
2023-04-27T14:33:27.082Z,29.11
2023-04-27T14:35:54.167Z,28.90
2023-04-27T14:38:20.738Z,29.45
2023-04-27T14:40:47.576Z,30.11
2023-04-27T14:43:14.597Z,29.83
2023-04-27T14:45:51.159Z,30.40
2023-04-27T14:48:21.019Z,29.48
2023-04-27T14:50:47.483Z,30.21
2023-04-27T14:53:13.879Z,30.75
2023-04-27T14:55:41.305Z,29.41
2023-04-27T14:58:07.747Z,29.79
2023-04-27T15:00:34.231Z,29.11
2023-04-27T15:03:00.871Z,29.09
2023-04-27T15:05:27.544Z,29.35
2023-04-27T15:07:54.141Z,29.87
2023-04-27T15:10:20.819Z,30.39
2023-04-27T15:12:47.276Z,30.59
2023-04-27T15:15:13.887Z,30.37
2023-04-27T15:17:40.520Z,29.28
2023-04-27T15:20:07.989Z,29.57
2023-04-27T15:22:34.493Z,30.92
2023-04-27T15:25:00.970Z,30.48
2023-04-27T15:27:27.470Z,31.47
2023-04-27T15:29:54.792Z,31.47
2023-04-27T15:32:23.272Z,31.41
2023-04-27T15:34:49.949Z,30.70
2023-04-27T15:37:16.415Z,30.63
2023-04-27T15:39:42.959Z,30.63
2023-04-27T15:42:09.434Z,31.20
2023-04-27T15:44:36.388Z,30.84
2023-04-27T15:47:03.326Z,30.99
2023-04-27T15:49:30.363Z,32.10
2023-04-27T15:51:56.818Z,32.05
2023-04-27T15:54:23.519Z,31.68
2023-04-27T15:56:50.093Z,31.86
2023-04-27T15:59:16.969Z,32.15
2023-04-27T16:01:43.520Z,31.73
2023-04-27T16:04:10.226Z,31.21
2023-04-27T16:06:37.074Z,31.48
2023-04-27T16:09:04.176Z,32.30
2023-04-27T16:11:31.440Z,32.17
2023-04-27T16:13:58.512Z,32.13
2023-04-27T16:16:25.101Z,31.50
2023-04-27T16:18:51.630Z,30.44
2023-04-27T16:21:18.122Z,31.01
2023-04-27T16:23:44.733Z,30.30
2023-04-27T16:26:11.234Z,29.63
2023-04-27T16:28:37.646Z,30.06
2023-04-27T16:31:04.275Z,30.25
2023-04-27T16:33:31.258Z,30.65
2023-04-27T16:35:57.785Z,30.34
2023-04-27T16:38:24.313Z,29.68
2023-04-27T16:40:52.600Z,30.16
2023-04-27T16:43:19.325Z,31.33
2023-04-27T16:45:45.944Z,31.66
2023-04-27T16:48:12.895Z,31.65
2023-04-27T16:50:39.628Z,30.99
2023-04-27T16:53:07.245Z,31.16
2023-04-27T16:55:34.897Z,31.40
2023-04-27T16:58:01.689Z,31.15
2023-04-27T17:00:28.611Z,30.41
2023-04-27T17:02:55.496Z,30.60
2023-04-27T17:05:22.004Z,30.50
2023-04-27T17:07:48.494Z,31.33
2023-04-27T17:10:16.701Z,32.12
2023-04-27T17:12:43.213Z,32.28
2023-04-27T17:15:10.743Z,32.51
2023-04-27T17:17:37.583Z,33.73
2023-04-27T17:20:06.496Z,34.29
2023-04-27T17:22:33.051Z,35.50
2023-04-27T17:24:59.489Z,35.01
2023-04-27T17:27:26.091Z,36.30
2023-04-27T17:29:54.428Z,36.66
2023-04-27T17:32:20.924Z,37.31
2023-04-27T17:34:47.436Z,37.74
2023-04-27T17:37:14.877Z,38.35
2023-04-27T17:39:41.473Z,39.48
2023-04-27T17:42:12.152Z,40.16
2023-04-27T17:44:41.074Z,40.76
2023-04-27T17:47:08.348Z,41.33
2023-04-27T17:49:34.783Z,41.97
2023-04-27T17:52:01.198Z,41.72
2023-04-27T17:54:29.924Z,42.33
2023-04-27T17:56:57.252Z,42.34
2023-04-27T17:59:24.844Z,42.73
2023-04-27T18:01:52.591Z,42.63
2023-04-27T18:04:19.524Z,43.05
2023-04-27T18:06:46.216Z,43.41
2023-04-27T18:09:13.078Z,43.81
2023-04-27T18:11:39.742Z,44.46
2023-04-27T18:14:06.141Z,44.90
2023-04-27T18:16:32.686Z,45.31
2023-04-27T18:18:59.122Z,45.66
2023-04-27T18:21:28.003Z,45.81
2023-04-27T18:23:54.418Z,46.23
2023-04-27T18:26:20.803Z,46.48
2023-04-27T18:28:47.870Z,46.89
2023-04-27T18:31:17.974Z,46.55
2023-04-27T18:33:45.160Z,47.05
2023-04-27T18:36:11.628Z,47.73
2023-04-27T18:38:38.210Z,48.19
2023-04-27T18:41:04.860Z,47.90
2023-04-27T18:43:31.366Z,48.61
2023-04-27T18:45:57.900Z,48.47
2023-04-27T18:48:24.560Z,48.66
2023-04-27T18:50:51.076Z,48.76
2023-04-27T18:53:17.485Z,48.82
2023-04-27T18:55:43.940Z,48.94
2023-04-27T18:58:10.362Z,49.68
2023-04-27T19:00:39.834Z,49.78
2023-04-27T19:03:06.536Z,50.15
2023-04-27T19:05:33.351Z,50.41
2023-04-27T19:07:59.971Z,50.72
2023-04-27T19:10:26.417Z,50.93
2023-04-27T19:12:53.207Z,50.38
2023-04-27T19:15:19.648Z,50.66
2023-04-27T19:17:47.278Z,50.45
2023-04-27T19:20:16.971Z,50.11
2023-04-27T19:22:43.458Z,49.95
2023-04-27T19:25:10.147Z,49.59
2023-04-27T19:27:36.700Z,49.44
2023-04-27T19:30:04.246Z,48.78
2023-04-27T19:32:30.995Z,49.10
2023-04-27T19:34:58.327Z,48.53
2023-04-27T19:37:25.121Z,48.42
2023-04-27T19:39:51.611Z,48.63
2023-04-27T19:42:18.090Z,48.93
2023-04-27T19:44:44.503Z,49.46
2023-04-27T19:47:10.931Z,49.71
2023-04-27T19:49:38.039Z,49.71
2023-04-27T19:52:05.273Z,50.13
2023-04-27T19:54:31.702Z,49.68
2023-04-27T19:56:58.221Z,49.52
2023-04-27T19:59:24.757Z,50.35
2023-04-27T20:01:51.274Z,50.05
2023-04-27T20:04:18.736Z,50.47
2023-04-27T20:06:46.254Z,50.22
2023-04-27T20:09:13.124Z,49.99
2023-04-27T20:11:39.616Z,50.42
2023-04-27T20:14:06.433Z,49.88
2023-04-27T20:16:32.990Z,49.96
2023-04-27T20:18:59.455Z,50.14
2023-04-27T20:21:27.891Z,49.95
2023-04-27T20:23:54.513Z,50.12
2023-04-27T20:26:21.096Z,49.87
2023-04-27T20:28:48.521Z,49.35
2023-04-27T20:31:15.421Z,49.55
2023-04-27T20:33:41.953Z,49.49
2023-04-27T20:36:17.429Z,49.77
2023-04-27T20:38:44.767Z,49.50
2023-04-27T20:41:12.305Z,49.46
2023-04-27T20:43:40.099Z,49.57
2023-04-27T20:46:07.432Z,49.67
2023-04-27T20:48:34.316Z,49.42
2023-04-27T20:51:00.777Z,49.54
2023-04-27T20:53:27.399Z,49.39
2023-04-27T20:55:53.887Z,48.60
2023-04-27T20:58:20.421Z,48.74
2023-04-27T21:00:46.940Z,49.01
2023-04-27T21:03:13.461Z,48.75
2023-04-27T21:05:41.174Z,48.74
2023-04-27T21:08:07.497Z,48.89
2023-04-27T21:10:35.369Z,48.73
2023-04-27T21:13:03.944Z,48.54
2023-04-27T21:15:30.616Z,47.92
2023-04-27T21:17:57.102Z,48.70
2023-04-27T21:20:23.661Z,49.37
2023-04-27T21:22:50.128Z,49.08
2023-04-27T21:25:16.573Z,49.43
2023-04-27T21:27:43.070Z,49.76
2023-04-27T21:30:10.119Z,49.68
2023-04-27T21:32:36.649Z,50.02
2023-04-27T21:35:03.227Z,50.22
2023-04-27T21:37:29.695Z,50.33
2023-04-27T21:39:56.076Z,50.61
2023-04-27T21:42:22.511Z,50.90
2023-04-27T21:44:48.958Z,50.96
2023-04-27T21:47:15.604Z,51.23
2023-04-27T21:49:41.986Z,51.48
2023-04-27T21:52:08.775Z,51.59
2023-04-27T21:54:35.492Z,51.52
2023-04-27T21:57:02.260Z,51.35
2023-04-27T21:59:28.697Z,51.59
2023-04-27T22:01:56.219Z,51.72
2023-04-27T22:04:23.171Z,51.81
2023-04-27T22:06:50.025Z,51.37
2023-04-27T22:09:16.795Z,51.68
2023-04-27T22:11:43.297Z,51.89
2023-04-27T22:14:09.785Z,51.59
2023-04-27T22:16:36.434Z,51.87
2023-04-27T22:19:02.966Z,51.66
2023-04-27T22:21:29.443Z,51.77
2023-04-27T22:23:55.949Z,51.94
2023-04-27T22:26:22.593Z,52.18
2023-04-27T22:28:49.023Z,52.45
2023-04-27T22:31:15.479Z,52.90
2023-04-27T22:33:42.001Z,53.27
2023-04-27T22:36:08.627Z,53.13
2023-04-27T22:38:35.098Z,53.28
2023-04-27T22:41:01.557Z,53.37
2023-04-27T22:43:28.205Z,53.73
2023-04-27T22:45:54.605Z,54.46
2023-04-27T22:48:21.177Z,55.00
2023-04-27T22:50:47.660Z,55.44
2023-04-27T22:53:14.059Z,55.64
2023-04-27T22:55:40.689Z,56.18
2023-04-27T22:58:07.323Z,56.24
2023-04-27T23:00:33.790Z,56.27
2023-04-27T23:03:00.409Z,56.99
2023-04-27T23:05:27.143Z,56.60
2023-04-27T23:07:53.615Z,56.73
2023-04-27T23:10:19.994Z,56.58
2023-04-27T23:12:46.598Z,56.84
2023-04-27T23:15:13.067Z,56.77
2023-04-27T23:17:39.494Z,56.18
2023-04-27T23:20:11.177Z,56.49
2023-04-27T23:22:43.935Z,56.08
2023-04-27T23:25:10.979Z,55.71
2023-04-27T23:27:37.575Z,55.99
2023-04-27T23:30:04.551Z,56.14
2023-04-27T23:32:30.997Z,56.13
2023-04-27T23:34:57.478Z,57.00
2023-04-27T23:37:24.860Z,57.69
2023-04-27T23:39:51.279Z,57.59
2023-04-27T23:42:17.733Z,57.58
2023-04-27T23:44:44.181Z,57.74
2023-04-27T23:47:10.624Z,58.23
2023-04-27T23:49:37.324Z,58.02
2023-04-27T23:52:03.836Z,58.35
2023-04-27T23:54:32.040Z,58.23
2023-04-27T23:56:58.504Z,58.13
2023-04-27T23:59:25.084Z,58.35
